Time;durP1;ratioP1;P1;durP2;ratioP2;P2;SDS_P1;SDS_P2;PMS_P1;PMS_P2;Temp;Humidity;BMP_temperature;BMP_pressure;BME280_temperature;BME280_humidity;BME280_pressure;Samples;Min_cycle;Max_cycle;Signal;HPM_P1;HPM_P2
2023/07/19 00:00:11;;;;;;;3.25;1.20;;;;;;;23.81;45.68;101386.38;4987020;28;20410;-66
2023/07/19 00:02:38;;;;;;;2.45;1.00;;;;;;;23.82;45.78;101390.72;4969906;28;20109;-66
2023/07/19 00:05:04;;;;;;;3.03;0.98;;;;;;;23.83;45.41;101384.38;4985353;28;20061;-65
2023/07/19 00:07:29;;;;;;;3.97;1.30;;;;;;;23.81;45.84;101375.72;4986508;28;20478;-66
2023/07/19 00:09:54;;;;;;;2.35;1.13;;;;;;;23.81;45.08;101378.38;4986555;28;20475;-66
2023/07/19 00:12:20;;;;;;;2.70;1.20;;;;;;;23.80;45.64;101372.22;4986751;28;20022;-66
2023/07/19 00:14:45;;;;;;;3.80;1.30;;;;;;;23.80;45.17;101382.03;4987541;28;20030;-66
2023/07/19 00:17:10;;;;;;;2.42;1.08;;;;;;;23.81;45.20;101386.38;4987203;28;20459;-66
2023/07/19 00:19:36;;;;;;;4.18;1.33;;;;;;;23.80;45.52;101380.22;4987441;28;20026;-66
2023/07/19 00:22:01;;;;;;;3.33;1.30;;;;;;;23.81;45.17;101373.06;4987449;28;20026;-66
2023/07/19 00:24:26;;;;;;;2.10;1.00;;;;;;;23.78;45.64;101365.38;4987364;28;20022;-67
2023/07/19 00:26:52;;;;;;;3.30;1.10;;;;;;;23.78;45.61;101357.38;4986880;28;20023;-65
2023/07/19 00:29:18;;;;;;;5.15;1.50;;;;;;;23.79;45.33;101367.06;4987608;28;20455;-68
2023/07/19 00:31:43;;;;;;;4.03;1.45;;;;;;;23.78;45.28;101357.38;4987411;28;20539;-68
2023/07/19 00:34:09;;;;;;;2.75;1.20;;;;;;;23.78;45.40;101355.56;4986921;28;20034;-67
2023/07/19 00:36:35;;;;;;;3.00;1.30;;;;;;;23.78;45.34;101360.06;4987216;28;20033;-67
2023/07/19 00:39:00;;;;;;;5.07;1.40;;;;;;;23.77;45.28;101353.91;4986932;28;20426;-64
2023/07/19 00:41:26;;;;;;;4.03;1.30;;;;;;;23.75;45.58;101345.25;4986611;28;20683;-66
2023/07/19 00:43:51;;;;;;;2.72;1.10;;;;;;;23.76;45.60;101344.22;4987241;28;20105;-66
2023/07/19 00:46:19;;;;;;;3.65;1.02;;;;;;;23.76;45.69;101338.91;4987256;28;20157;-66
2023/07/19 00:48:45;;;;;;;3.85;1.08;;;;;;;23.75;45.23;101333.75;4987067;28;20053;-66
2023/07/19 00:51:11;;;;;;;3.65;1.20;;;;;;;23.76;45.36;101330.09;4987110;28;20112;-65
2023/07/19 00:53:38;;;;;;;3.72;1.55;;;;;;;23.75;45.30;101334.59;4986850;28;20113;-67
2023/07/19 00:56:04;;;;;;;2.97;1.10;;;;;;;23.74;45.57;101335.56;4986260;28;20088;-65
2023/07/19 00:58:31;;;;;;;2.97;1.08;;;;;;;23.74;45.11;101335.56;4986927;28;20023;-65
2023/07/19 01:00:59;;;;;;;3.45;1.10;;;;;;;23.73;45.40;101337.41;4986160;28;20813;-68
2023/07/19 01:03:26;;;;;;;4.28;1.10;;;;;;;23.72;45.48;101334.91;4953066;28;20058;-64
2023/07/19 01:05:52;;;;;;;4.43;1.20;;;;;;;23.72;45.23;101332.22;4986581;28;20032;-66
2023/07/19 01:08:18;;;;;;;2.80;1.20;;;;;;;23.73;45.60;101336.56;4968874;28;20038;-63
2023/07/19 01:10:46;;;;;;;2.95;1.20;;;;;;;23.72;45.11;101332.22;4985778;28;21423;-64
2023/07/19 01:13:12;;;;;;;3.15;1.20;;;;;;;23.71;45.20;101325.22;4953008;28;20038;-64
2023/07/19 01:15:40;;;;;;;3.38;1.23;;;;;;;23.73;45.10;101328.56;4986667;28;20480;-66
2023/07/19 01:18:06;;;;;;;3.45;1.80;;;;;;;23.70;45.17;101328.88;4986597;28;20057;-67
2023/07/19 01:20:32;;;;;;;2.53;1.13;;;;;;;23.71;45.37;101327.88;4969107;28;20352;-66
2023/07/19 01:22:58;;;;;;;2.88;1.23;;;;;;;23.71;45.02;101323.41;4986121;28;20047;-68
2023/07/19 01:25:23;;;;;;;3.58;1.42;;;;;;;23.69;45.56;101320.06;4986576;28;20113;-67
2023/07/19 01:27:49;;;;;;;3.28;1.17;;;;;;;23.69;45.14;101314.72;4969160;28;20045;-68
2023/07/19 01:30:18;;;;;;;3.30;1.45;;;;;;;23.65;45.19;101302.69;4985795;28;20045;-67
2023/07/19 01:32:44;;;;;;;4.00;1.40;;;;;;;23.69;45.36;101313.91;4968738;28;20026;-67
2023/07/19 01:35:10;;;;;;;5.78;1.40;;;;;;;23.68;44.95;101310.38;4985644;28;20030;-67
2023/07/19 01:37:36;;;;;;;3.88;1.50;;;;;;;23.69;45.43;101304.09;4985446;28;20041;-65
2023/07/19 01:40:03;;;;;;;2.85;1.20;;;;;;;23.67;45.48;101306.06;4986244;28;20039;-64
2023/07/19 01:42:30;;;;;;;3.15;1.23;;;;;;;23.69;45.31;101306.75;4968318;28;20085;-66
2023/07/19 01:44:55;;;;;;;3.70;1.17;;;;;;;23.69;45.43;101305.94;4984657;28;20513;-67
2023/07/19 01:47:20;;;;;;;3.67;2.03;;;;;;;23.69;45.51;101304.09;4986679;28;20042;-66
2023/07/19 01:49:49;;;;;;;4.78;1.20;;;;;;;23.68;45.07;101304.25;4986259;28;20034;-66
2023/07/19 01:52:15;;;;;;;7.00;1.48;;;;;;;23.66;45.26;101303.56;4986262;28;20077;-66
2023/07/19 01:54:41;;;;;;;6.10;1.40;;;;;;;23.66;45.66;101299.06;4978318;28;20038;-67
2023/07/19 01:57:06;;;;;;;4.90;1.20;;;;;;;23.68;45.43;101301.56;4986265;28;20034;-68
2023/07/19 01:59:31;;;;;;;3.85;1.30;;;;;;;23.67;45.37;101295.44;4986569;28;20034;-65
2023/07/19 02:01:57;;;;;;;3.75;1.30;;;;;;;23.68;45.59;101301.56;4985692;28;20039;-67
2023/07/19 02:04:22;;;;;;;3.95;1.30;;;;;;;23.66;45.66;101304.38;4986440;28;20038;-67
2023/07/19 02:06:47;;;;;;;3.63;1.25;;;;;;;23.65;45.09;101307.19;4986036;28;20835;-66
2023/07/19 02:09:13;;;;;;;4.00;1.27;;;;;;;23.67;45.38;101307.88;4981980;28;20484;-65
2023/07/19 02:11:39;;;;;;;4.75;1.45;;;;;;;23.65;45.56;101302.69;4966133;28;20042;-66
2023/07/19 02:14:04;;;;;;;3.97;1.30;;;;;;;23.65;45.22;101296.56;4969942;28;20038;-65
2023/07/19 02:16:29;;;;;;;4.03;1.23;;;;;;;23.64;45.19;101290.41;4970435;28;20191;-65
2023/07/19 02:18:55;;;;;;;4.60;1.27;;;;;;;23.66;45.16;101284.94;4970021;28;20042;-64
2023/07/19 02:21:20;;;;;;;6.43;1.40;;;;;;;23.65;45.20;101280.59;4970277;28;20034;-66
2023/07/19 02:23:46;;;;;;;4.32;1.55;;;;;;;23.64;45.20;101276.25;4969729;28;20038;-63
2023/07/19 02:26:11;;;;;;;4.53;1.20;;;;;;;23.65;45.15;101284.06;4968892;28;20356;-64
2023/07/19 02:28:37;;;;;;;5.82;1.30;;;;;;;23.63;45.07;101278.09;4969817;28;20033;-63
2023/07/19 02:31:03;;;;;;;3.28;1.23;;;;;;;23.62;45.60;101279.06;4969749;28;20387;-65
2023/07/19 02:33:28;;;;;;;5.93;1.50;;;;;;;23.64;45.53;101282.44;4970141;28;20033;-66
2023/07/19 02:35:54;;;;;;;4.40;1.30;;;;;;;23.62;45.67;101276.41;4969718;28;20034;-67
2023/07/19 02:38:21;;;;;;;5.18;1.55;;;;;;;23.62;45.64;101272.91;4969775;28;20105;-66
2023/07/19 02:40:47;;;;;;;3.40;1.30;;;;;;;23.64;45.50;101273.59;4969462;28;20113;-66
2023/07/19 02:43:14;;;;;;;4.32;1.30;;;;;;;23.60;45.30;101275.72;4968510;28;20035;-66
2023/07/19 02:45:39;;;;;;;5.13;1.48;;;;;;;23.63;45.28;101277.25;4969565;28;20030;-67
2023/07/19 02:48:06;;;;;;;4.93;1.50;;;;;;;23.61;45.63;101287.22;4969295;28;20361;-67
2023/07/19 02:50:31;;;;;;;3.30;1.40;;;;;;;23.63;45.26;101290.56;4969714;28;20447;-66
2023/07/19 02:52:57;;;;;;;5.38;1.52;;;;;;;23.61;45.64;101292.53;4969694;28;20403;-65
2023/07/19 02:55:22;;;;;;;4.85;1.40;;;;;;;23.63;45.34;101285.22;4969422;28;21016;-66
2023/07/19 02:57:48;;;;;;;5.00;1.48;;;;;;;23.60;45.21;101286.38;4969405;28;20035;-66
2023/07/19 03:00:13;;;;;;;4.03;1.30;;;;;;;23.62;45.37;101280.91;4969475;28;20130;-65
2023/07/19 03:02:38;;;;;;;3.95;1.50;;;;;;;23.61;45.55;101276.59;4968949;28;20034;-65
2023/07/19 03:05:04;;;;;;;3.55;1.40;;;;;;;23.60;45.70;101285.53;4969315;28;20035;-66
2023/07/19 03:07:30;;;;;;;3.15;1.33;;;;;;;23.58;45.36;101272.38;4968854;28;20034;-65
2023/07/19 03:09:56;;;;;;;2.50;1.17;;;;;;;23.60;45.75;101285.53;4978648;28;20046;-64
2023/07/19 03:12:21;;;;;;;4.43;1.63;;;;;;;23.60;45.77;101285.53;4988780;28;20022;-64
2023/07/19 03:14:46;;;;;;;4.13;1.55;;;;;;;23.60;45.35;101289.03;4989020;28;20026;-66
2023/07/19 03:17:12;;;;;;;3.50;1.40;;;;;;;23.59;45.67;101298.00;4988622;28;20496;-64
2023/07/19 03:19:37;;;;;;;4.13;1.30;;;;;;;23.60;45.24;101289.03;4988045;28;20030;-65
2023/07/19 03:22:03;;;;;;;3.38;1.30;;;;;;;23.59;45.16;101284.72;4988473;28;20030;-66
2023/07/19 03:24:30;;;;;;;3.45;1.33;;;;;;;23.59;45.74;101290.03;4987244;28;20050;-65
2023/07/19 03:26:55;;;;;;;4.32;1.40;;;;;;;23.58;45.54;101293.66;4971181;28;20032;-65
2023/07/19 03:29:20;;;;;;;4.03;1.40;;;;;;;23.59;45.35;101291.84;4988082;28;20037;-66
2023/07/19 03:31:46;;;;;;;2.97;1.38;;;;;;;23.58;45.77;101298.16;4988099;28;20065;-63
2023/07/19 03:34:11;;;;;;;3.47;1.60;;;;;;;23.57;45.76;101302.63;4986266;28;20033;-65
2023/07/19 03:36:36;;;;;;;3.03;1.38;;;;;;;23.58;45.30;101295.50;4988448;28;20113;-65
2023/07/19 03:39:03;;;;;;;3.97;1.42;;;;;;;23.58;45.29;101303.47;4988320;28;20045;-66
2023/07/19 03:41:29;;;;;;;3.53;1.20;;;;;;;23.57;45.23;101294.63;4988360;28;20114;-64
2023/07/19 03:43:54;;;;;;;3.72;1.33;;;;;;;23.57;45.63;101302.63;4988106;28;20105;-66
2023/07/19 03:46:20;;;;;;;2.97;1.27;;;;;;;23.55;45.66;101297.44;4987393;28;20078;-65
2023/07/19 03:48:45;;;;;;;3.53;1.17;;;;;;;23.55;45.75;101297.44;4970058;28;20034;-67
2023/07/19 03:51:11;;;;;;;4.40;1.20;;;;;;;23.56;45.44;101303.63;4987181;28;20026;-67
2023/07/19 03:53:36;;;;;;;3.40;1.23;;;;;;;23.56;45.53;101295.66;4987317;28;20030;-68
2023/07/19 03:56:02;;;;;;;4.22;1.38;;;;;;;23.57;45.31;101301.78;4987420;28;20041;-68
2023/07/19 03:58:28;;;;;;;4.80;1.55;;;;;;;23.55;45.67;101300.13;4969830;28;20165;-66
2023/07/19 04:00:55;;;;;;;4.05;1.30;;;;;;;23.54;45.29;101311.75;4969699;28;20052;-68
2023/07/19 04:03:21;;;;;;;4.50;1.38;;;;;;;23.54;45.34;101298.47;4987899;28;20030;-66
2023/07/19 04:05:47;;;;;;;3.78;1.45;;;;;;;23.53;45.28;101307.41;4987675;28;20034;-67
2023/07/19 04:08:16;;;;;;;3.95;1.20;;;;;;;23.53;45.67;101311.91;4987987;28;20038;-64
2023/07/19 04:10:42;;;;;;;3.63;1.30;;;;;;;23.52;45.49;101300.41;4979466;28;20479;-67
2023/07/19 04:13:10;;;;;;;2.72;1.30;;;;;;;23.53;45.97;101293.28;4987159;28;20125;-65
2023/07/19 04:15:36;;;;;;;4.57;1.60;;;;;;;23.54;45.92;101294.94;4986060;28;20128;-67
2023/07/19 04:18:01;;;;;;;3.10;1.30;;;;;;;23.53;46.00;101299.44;4986809;28;20426;-67
2023/07/19 04:20:26;;;;;;;3.85;1.33;;;;;;;23.54;45.40;101298.47;4986808;28;20022;-65
2023/07/19 04:22:52;;;;;;;4.25;1.60;;;;;;;23.53;45.98;101294.13;4987545;28;20053;-66
2023/07/19 04:25:18;;;;;;;3.80;1.40;;;;;;;23.52;45.93;101300.41;4987321;28;20018;-68
2023/07/19 04:27:44;;;;;;;3.83;1.40;;;;;;;23.53;45.77;101303.94;4986958;28;20026;-65
2023/07/19 04:30:10;;;;;;;3.75;1.40;;;;;;;23.53;45.97;101294.13;4986868;28;20034;-64
2023/07/19 04:32:35;;;;;;;3.42;1.63;;;;;;;23.54;46.04;101300.25;4986581;28;20046;-66
2023/07/19 04:35:01;;;;;;;3.55;1.30;;;;;;;23.52;45.48;101295.09;4987129;28;20033;-66
2023/07/19 04:37:26;;;;;;;2.92;1.38;;;;;;;23.53;45.52;101301.25;4987197;28;20113;-66
2023/07/19 04:39:51;;;;;;;3.88;1.50;;;;;;;23.52;45.87;101302.25;4987025;28;20125;-67
2023/07/19 04:42:19;;;;;;;3.83;1.63;;;;;;;23.52;45.78;101308.38;4985571;28;20076;-65
2023/07/19 04:44:45;;;;;;;2.95;1.30;;;;;;;23.52;45.62;101307.56;4987283;28;20080;-69
2023/07/19 04:47:11;;;;;;;4.30;1.52;;;;;;;23.52;45.63;101308.38;4984385;28;20109;-65
2023/07/19 04:49:37;;;;;;;3.70;1.50;;;;;;;23.53;45.91;101311.91;4986786;28;20953;-66
2023/07/19 04:52:02;;;;;;;4.45;1.50;;;;;;;23.52;46.11;101307.56;4986802;28;20042;-64
2023/07/19 04:54:27;;;;;;;3.53;1.42;;;;;;;23.52;45.89;101319.03;4986823;28;20057;-66
2023/07/19 04:56:53;;;;;;;2.92;1.30;;;;;;;23.51;46.12;101314.72;4987436;28;20038;-66
2023/07/19 04:59:19;;;;;;;3.40;1.60;;;;;;;23.50;45.74;101321.00;4986736;28;20034;-66
2023/07/19 05:01:44;;;;;;;4.07;1.48;;;;;;;23.50;46.17;101321.00;4987002;28;20364;-66
2023/07/19 05:04:09;;;;;;;4.00;1.60;;;;;;;23.50;46.08;101321.00;4986788;28;20391;-66
2023/07/19 05:06:35;;;;;;;3.25;1.50;;;;;;;23.49;45.83;101316.66;4986844;28;20049;-66
2023/07/19 05:09:00;;;;;;;4.22;1.40;;;;;;;23.51;45.80;101309.41;4986387;28;20073;-65
2023/07/19 05:11:25;;;;;;;3.55;1.50;;;;;;;23.51;45.68;101313.84;4986749;28;20053;-68
2023/07/19 05:13:51;;;;;;;4.50;1.80;;;;;;;23.51;46.05;101311.19;4986519;28;20064;-65
2023/07/19 05:16:17;;;;;;;3.08;1.40;;;;;;;23.49;45.74;101316.66;4986688;28;20058;-65
2023/07/19 05:18:42;;;;;;;3.38;1.58;;;;;;;23.49;45.79;101311.34;4986521;28;20473;-67
2023/07/19 05:21:08;;;;;;;4.53;1.65;;;;;;;23.51;45.64;101319.19;4986969;28;20545;-68
2023/07/19 05:23:33;;;;;;;3.13;1.38;;;;;;;23.50;46.18;101320.19;4986723;28;20034;-64
2023/07/19 05:25:58;;;;;;;3.70;1.40;;;;;;;23.50;45.87;101318.34;4985887;28;20042;-68
2023/07/19 05:28:24;;;;;;;2.90;1.30;;;;;;;23.48;46.09;101317.66;4985948;28;20037;-67
2023/07/19 05:30:49;;;;;;;4.30;1.67;;;;;;;23.49;46.32;101315.84;4986500;28;20042;-66
2023/07/19 05:33:15;;;;;;;3.33;1.40;;;;;;;23.48;46.15;101307.03;4986916;28;20483;-67
2023/07/19 05:35:42;;;;;;;4.60;1.83;;;;;;;23.48;45.84;101308.84;4969250;28;20034;-67
2023/07/19 05:38:07;;;;;;;2.70;1.20;;;;;;;23.48;46.00;101306.16;4986961;28;20050;-65
2023/07/19 05:40:33;;;;;;;4.40;1.50;;;;;;;23.49;46.28;101311.34;4986546;28;20133;-66
2023/07/19 05:42:58;;;;;;;3.25;1.30;;;;;;;23.47;46.35;101302.69;4986615;28;20128;-66
2023/07/19 05:45:23;;;;;;;4.07;1.58;;;;;;;23.48;45.50;101307.03;4986819;28;20034;-65
2023/07/19 05:47:49;;;;;;;4.25;1.60;;;;;;;23.48;46.13;101303.50;4988097;28;20069;-65
2023/07/19 05:50:14;;;;;;;2.88;1.40;;;;;;;23.46;45.91;101306.31;4972188;28;20121;-66
2023/07/19 05:52:40;;;;;;;4.13;1.55;;;;;;;23.48;45.91;101314.16;4989795;28;20026;-66
2023/07/19 05:55:07;;;;;;;3.05;1.20;;;;;;;23.48;45.84;101308.84;4955938;28;20044;-63
2023/07/19 05:57:32;;;;;;;4.22;1.42;;;;;;;23.50;46.19;101314.88;4989548;28;20486;-67
2023/07/19 06:00:13;;;;;;;3.88;1.30;;;;;;;23.50;46.03;101312.19;4989344;28;20757;-67
2023/07/19 06:02:39;;;;;;;3.10;1.42;;;;;;;23.49;46.35;101310.50;4990102;28;20045;-65
2023/07/19 06:05:06;;;;;;;3.53;1.25;;;;;;;23.50;46.17;101315.69;4989788;28;20030;-64
2023/07/19 06:07:32;;;;;;;4.28;1.40;;;;;;;23.50;46.16;101306.88;4990067;28;20026;-66
2023/07/19 06:09:57;;;;;;;4.10;1.30;;;;;;;23.50;46.46;101314.88;4989651;28;20044;-66
2023/07/19 06:12:22;;;;;;;4.85;1.45;;;;;;;23.48;46.94;101315.00;4989870;28;20374;-67
2023/07/19 06:14:48;;;;;;;3.75;1.38;;;;;;;23.48;46.66;101316.81;4989388;28;20027;-65
2023/07/19 06:17:13;;;;;;;4.40;1.60;;;;;;;23.47;47.14;101315.97;4989053;28;20045;-65
2023/07/19 06:19:38;;;;;;;2.90;1.30;;;;;;;23.48;47.15;101312.34;4989277;28;20030;-64
2023/07/19 06:22:04;;;;;;;3.22;1.20;;;;;;;23.50;47.32;101318.34;4989705;28;20334;-68
2023/07/19 06:24:29;;;;;;;4.25;1.60;;;;;;;23.49;46.96;101316.66;4989460;28;20121;-66
2023/07/19 06:26:55;;;;;;;3.92;1.52;;;;;;;23.49;47.08;101308.69;4988688;28;20029;-65
2023/07/19 06:29:21;;;;;;;4.90;1.50;;;;;;;23.47;47.52;101305.34;4987662;28;20030;-65
2023/07/19 06:31:47;;;;;;;3.13;1.25;;;;;;;23.48;47.24;101304.38;4989832;28;20439;-66
2023/07/19 06:34:12;;;;;;;3.08;1.40;;;;;;;23.49;47.05;101303.38;4986790;28;20037;-68
2023/07/19 06:36:37;;;;;;;3.40;1.25;;;;;;;23.52;47.06;101299.59;4987901;28;20042;-65
2023/07/19 06:39:03;;;;;;;3.63;1.50;;;;;;;23.51;47.42;101297.91;4988079;28;20581;-68
2023/07/19 06:41:28;;;;;;;5.20;1.20;;;;;;;23.49;47.13;101303.38;4988745;28;20478;-67
2023/07/19 06:43:54;;;;;;;3.10;1.40;;;;;;;23.52;47.50;101307.56;4988416;28;20030;-65
2023/07/19 06:46:21;;;;;;;3.72;1.45;;;;;;;23.52;47.56;101305.72;4985603;28;20272;-65
2023/07/19 06:48:46;;;;;;;4.57;1.77;;;;;;;23.62;47.45;101310.97;4988263;28;20076;-66
2023/07/19 06:51:12;;;;;;;4.10;1.70;;;;;;;23.67;47.46;101307.88;4988660;28;20654;-65
2023/07/19 06:53:37;;;;;;;6.75;1.52;;;;;;;23.70;47.13;101304.91;4988455;28;20081;-67
2023/07/19 06:56:04;;;;;;;4.80;1.80;;;;;;;23.73;47.03;101309.94;4988553;28;20042;-66
2023/07/19 06:58:30;;;;;;;5.13;1.77;;;;;;;23.76;47.31;101306.97;4988060;28;20041;-66
2023/07/19 07:00:56;;;;;;;3.78;1.67;;;;;;;23.77;47.27;101299.84;4988588;28;20022;-68
2023/07/19 07:03:22;;;;;;;2.78;1.30;;;;;;;23.80;46.92;101307.50;4987563;28;20037;-66
2023/07/19 07:05:47;;;;;;;3.72;1.52;;;;;;;23.82;47.38;101311.69;4970843;28;20034;-67
2023/07/19 07:08:13;;;;;;;3.22;1.20;;;;;;;23.84;47.25;101311.59;4987530;28;20041;-66
2023/07/19 07:10:41;;;;;;;3.15;1.38;;;;;;;23.85;47.38;101311.44;4987083;28;20097;-66
2023/07/19 07:13:06;;;;;;;3.30;1.40;;;;;;;23.87;46.82;101317.44;4985680;28;20374;-65
2023/07/19 07:15:31;;;;;;;3.70;1.40;;;;;;;23.90;47.35;101310.97;4988027;28;20042;-67
2023/07/19 07:17:57;;;;;;;3.08;1.23;;;;;;;23.92;46.57;101313.50;4987892;28;20022;-68
2023/07/19 07:20:27;;;;;;;5.03;1.60;;;;;;;23.84;46.98;101306.25;4985382;28;20026;-68
2023/07/19 07:22:53;;;;;;;3.55;1.40;;;;;;;23.82;46.95;101316.19;4987264;28;20039;-65
2023/07/19 07:25:19;;;;;;;3.20;1.13;;;;;;;23.78;46.99;101317.47;4988168;28;20018;-68
2023/07/19 07:27:44;;;;;;;3.35;1.15;;;;;;;23.77;47.10;101321.97;4987881;28;20080;-66
2023/07/19 07:30:10;;;;;;;2.25;1.10;;;;;;;23.76;47.26;101320.28;4987682;28;20022;-67
2023/07/19 07:32:37;;;;;;;6.25;1.58;;;;;;;23.76;47.59;101312.31;4988582;28;20101;-69
2023/07/19 07:35:03;;;;;;;4.00;1.20;;;;;;;23.85;46.95;101310.59;4976554;28;20034;-65
2023/07/19 07:37:28;;;;;;;4.97;1.40;;;;;;;23.90;46.76;101309.16;4985257;28;20057;-65
2023/07/19 07:39:53;;;;;;;4.75;1.30;;;;;;;23.92;46.95;101303.66;4986570;28;20026;-66
2023/07/19 07:42:20;;;;;;;3.35;1.20;;;;;;;23.96;46.69;101305.06;4987211;28;20042;-65
2023/07/19 07:44:45;;;;;;;3.92;1.30;;;;;;;23.95;46.96;101306.03;4986454;28;20038;-65
2023/07/19 07:47:10;;;;;;;3.40;1.33;;;;;;;23.93;46.66;101307.19;4988730;28;20037;-65
2023/07/19 07:49:38;;;;;;;3.88;1.50;;;;;;;23.95;46.74;101306.03;4973559;28;20129;-70
2023/07/19 07:52:05;;;;;;;4.93;1.40;;;;;;;24.00;46.83;101313.56;4978878;28;20128;-69
2023/07/19 07:54:30;;;;;;;3.78;1.40;;;;;;;24.01;46.56;101309.94;4979537;28;20301;-68
2023/07/19 07:56:55;;;;;;;7.22;1.73;;;;;;;24.03;46.57;101307.94;4978815;28;20038;-69
2023/07/19 07:59:21;;;;;;;5.50;1.45;;;;;;;24.04;46.40;101315.78;4979222;28;20116;-69
2023/07/19 08:01:46;;;;;;;5.82;1.60;;;;;;;24.07;46.70;101306.66;4978346;28;20463;-69
2023/07/19 08:04:12;;;;;;;4.43;1.25;;;;;;;24.08;46.32;101301.19;4978413;28;20617;-70
2023/07/19 08:06:38;;;;;;;4.85;1.10;;;;;;;24.07;46.19;101298.66;4979052;28;20030;-67
2023/07/19 08:09:04;;;;;;;3.10;1.40;;;;;;;24.11;46.65;101300.00;4978432;28;20044;-67
2023/07/19 08:11:31;;;;;;;4.03;1.30;;;;;;;24.11;46.05;101292.03;4979317;28;20043;-65
2023/07/19 08:13:57;;;;;;;4.63;1.45;;;;;;;24.12;46.50;101292.88;4979616;28;20073;-68
2023/07/19 08:16:22;;;;;;;4.53;2.10;;;;;;;24.13;45.91;101289.22;4979032;28;20034;-68
2023/07/19 08:18:48;;;;;;;4.45;1.27;;;;;;;24.15;46.23;101290.75;4977339;28;20065;-66
2023/07/19 08:21:13;;;;;;;3.72;1.20;;;;;;;24.13;46.13;101281.22;4977914;28;20069;-66
2023/07/19 08:23:39;;;;;;;3.70;1.55;;;;;;;24.17;46.23;101287.94;4978206;28;20038;-67
2023/07/19 08:26:04;;;;;;;3.78;1.40;;;;;;;24.18;46.21;101284.25;4977256;28;20081;-68
2023/07/19 08:28:30;;;;;;;5.53;1.50;;;;;;;24.20;46.31;101285.78;4977558;28;20076;-69
2023/07/19 08:30:55;;;;;;;5.93;2.65;;;;;;;24.19;45.87;101280.63;4977867;28;20505;-67
2023/07/19 08:33:22;;;;;;;5.07;1.50;;;;;;;24.19;45.97;101284.09;4979629;28;20089;-67
2023/07/19 08:35:47;;;;;;;5.20;1.50;;;;;;;24.22;45.88;101285.63;4986950;28;20038;-67
2023/07/19 08:38:14;;;;;;;3.40;1.17;;;;;;;24.24;45.94;101289.81;4986419;28;20032;-67
2023/07/19 08:40:39;;;;;;;3.40;1.42;;;;;;;24.23;46.24;101290.81;4986397;28;20030;-66
2023/07/19 08:43:08;;;;;;;3.63;1.30;;;;;;;24.22;46.20;101291.78;4986725;28;20375;-65
2023/07/19 08:45:36;;;;;;;2.65;1.10;;;;;;;24.22;45.84;101288.28;4986607;28;20053;-67
2023/07/19 08:48:03;;;;;;;3.60;1.30;;;;;;;24.23;45.98;101284.66;4986023;28;20463;-65
2023/07/19 08:50:28;;;;;;;5.00;1.33;;;;;;;24.25;45.69;101293.31;4986242;28;20065;-67
2023/07/19 08:52:54;;;;;;;3.97;1.40;;;;;;;24.21;45.76;101287.47;4986175;28;20026;-66
2023/07/19 08:55:20;;;;;;;5.35;1.42;;;;;;;24.23;45.60;101290.81;4984576;28;20416;-68
2023/07/19 08:57:46;;;;;;;4.68;1.60;;;;;;;24.23;45.65;101292.63;4986475;28;20032;-69
2023/07/19 09:00:16;;;;;;;6.50;1.58;;;;;;;24.22;45.88;101288.28;4986105;28;20042;-66
2023/07/19 09:02:42;;;;;;;4.75;1.40;;;;;;;24.22;46.25;101290.97;4978112;28;20125;-66
2023/07/19 09:05:09;;;;;;;5.00;1.60;;;;;;;24.22;46.04;101286.47;4985797;28;20121;-66
2023/07/19 09:07:36;;;;;;;2.97;1.20;;;;;;;24.24;45.66;101289.81;4985768;28;20026;-65
2023/07/19 09:10:02;;;;;;;3.03;1.20;;;;;;;24.22;45.74;101294.44;4986118;28;20050;-65
2023/07/19 09:12:36;;;;;;;4.57;1.35;;;;;;;24.23;46.17;101292.63;4985696;28;20535;-64
2023/07/19 09:15:07;;;;;;;3.22;1.30;;;;;;;24.23;46.23;101288.16;4985718;28;20034;-66
2023/07/19 09:17:40;;;;;;;4.28;1.40;;;;;;;24.21;46.28;101286.59;4986527;28;20034;-68
2023/07/19 09:20:07;;;;;;;5.22;1.35;;;;;;;24.18;46.31;101290.44;4983414;28;20054;-65
2023/07/19 09:22:34;;;;;;;5.95;1.55;;;;;;;24.18;46.39;101285.13;4988763;28;20044;-68
2023/07/19 09:25:03;;;;;;;4.32;1.58;;;;;;;24.17;46.26;101286.09;4990780;28;20022;-69
2023/07/19 09:27:29;;;;;;;3.72;1.35;;;;;;;24.15;46.60;101281.91;4990282;28;20034;-67
2023/07/19 09:29:55;;;;;;;6.72;1.52;;;;;;;24.12;46.61;101277.75;4990112;28;20061;-66
2023/07/19 09:32:20;;;;;;;7.30;1.50;;;;;;;24.11;46.49;101289.38;4989856;28;20057;-67
2023/07/19 09:34:45;;;;;;;3.72;1.35;;;;;;;24.07;46.33;101288.84;4989090;28;20036;-67
2023/07/19 09:37:11;;;;;;;4.85;1.30;;;;;;;24.06;46.66;101286.34;4989490;28;20030;-67
2023/07/19 09:39:37;;;;;;;5.88;1.40;;;;;;;24.04;46.74;101283.00;4989272;28;20026;-68
2023/07/19 09:42:03;;;;;;;5.18;1.83;;;;;;;23.98;47.20;101287.09;4987916;28;20042;-66
2023/07/19 09:44:30;;;;;;;4.25;1.38;;;;;;;23.97;47.23;101290.72;4987894;28;20081;-66
2023/07/19 09:46:56;;;;;;;4.20;1.40;;;;;;;23.95;47.39;101286.56;4988757;28;20034;-66
2023/07/19 09:49:22;;;;;;;3.22;1.30;;;;;;;23.91;47.99;101288.72;4990204;28;20458;-64
2023/07/19 09:51:48;;;;;;;4.40;1.27;;;;;;;23.90;48.08;101281.69;4990652;28;20077;-67
2023/07/19 09:54:14;;;;;;;3.05;1.30;;;;;;;23.87;48.18;101282.84;4990246;28;20026;-66
2023/07/19 09:56:43;;;;;;;4.55;1.30;;;;;;;23.86;48.03;101281.19;4990168;28;20087;-65
2023/07/19 09:59:14;;;;;;;4.93;1.58;;;;;;;23.86;48.05;101283.84;4988606;28;20490;-67
2023/07/19 10:01:40;;;;;;;2.78;1.10;;;;;;;23.89;47.85;101283.53;4989829;28;20058;-67
2023/07/19 10:04:24;;;;;;;3.63;1.52;;;;;;;23.85;48.45;101282.16;4988492;28;20042;-64
2023/07/19 10:07:02;;;;;;;5.68;1.63;;;;;;;23.93;48.24;101278.75;4985224;28;20069;-64
2023/07/19 10:09:32;;;;;;;3.08;1.20;;;;;;;24.00;48.23;101285.09;4986123;28;20434;-66
2023/07/19 10:12:05;;;;;;;4.60;1.25;;;;;;;24.03;47.95;101282.13;4969370;28;20031;-65
2023/07/19 10:14:32;;;;;;;2.40;1.20;;;;;;;24.08;47.77;101292.34;4989046;28;20453;-66
2023/07/19 10:17:03;;;;;;;4.85;1.48;;;;;;;24.09;47.44;101289.50;4988285;28;20034;-65
2023/07/19 10:19:28;;;;;;;4.93;1.63;;;;;;;24.14;47.38;101291.72;4987810;28;20390;-67
2023/07/19 10:22:05;;;;;;;4.75;1.30;;;;;;;24.13;48.10;101286.56;4989637;28;20031;-65
2023/07/19 10:24:32;;;;;;;4.68;1.55;;;;;;;24.15;47.78;101287.22;4988637;28;20096;-67
2023/07/19 10:27:03;;;;;;;3.35;1.40;;;;;;;24.05;48.29;101287.31;4986430;28;20030;-66
2023/07/19 10:29:43;;;;;;;4.95;1.40;;;;;;;24.02;48.52;101295.59;4970080;28;20042;-65
2023/07/19 10:32:10;;;;;;;2.85;1.42;;;;;;;24.01;48.43;101288.63;4989301;28;20022;-66
2023/07/19 10:34:37;;;;;;;3.92;1.40;;;;;;;24.01;48.64;101285.97;4987162;28;20423;-67
2023/07/19 10:37:06;;;;;;;4.05;1.25;;;;;;;23.98;48.84;101286.28;4970543;28;20364;-66
2023/07/19 10:39:33;;;;;;;5.70;1.67;;;;;;;23.96;48.33;101283.75;4989046;28;20109;-66
2023/07/19 10:41:59;;;;;;;4.80;1.30;;;;;;;23.96;48.40;101289.09;4989391;28;20049;-66
2023/07/19 10:44:26;;;;;;;4.15;1.50;;;;;;;23.98;48.65;101297.75;4989417;28;20034;-65
2023/07/19 10:46:55;;;;;;;4.43;1.20;;;;;;;23.93;48.92;101285.91;4989419;28;20520;-67
2023/07/19 10:49:24;;;;;;;3.60;1.38;;;;;;;23.99;47.95;101288.78;4983285;28;20030;-66
2023/07/19 10:51:58;;;;;;;5.80;1.65;;;;;;;24.03;48.11;101270.66;4967201;28;20371;-66
2023/07/19 10:54:24;;;;;;;5.03;2.10;;;;;;;24.12;48.10;101269.75;4986667;28;20081;-65
2023/07/19 10:56:51;;;;;;;3.88;1.45;;;;;;;24.16;47.63;101275.59;4986896;28;20050;-68
2023/07/19 10:59:17;;;;;;;4.57;1.40;;;;;;;24.19;48.05;101285.94;4986963;28;20030;-69
2023/07/19 11:01:44;;;;;;;3.67;1.30;;;;;;;24.21;48.11;101286.59;4987969;28;20030;-67
2023/07/19 11:04:09;;;;;;;4.95;1.40;;;;;;;24.22;47.84;101288.28;4988105;28;20043;-69
2023/07/19 11:06:38;;;;;;;4.82;1.30;;;;;;;24.22;47.66;101291.78;4987680;28;20027;-68
2023/07/19 11:09:07;;;;;;;3.38;1.52;;;;;;;24.24;47.42;101283.66;4987708;28;20117;-66
2023/07/19 11:11:35;;;;;;;5.78;1.40;;;;;;;24.27;47.67;101281.53;4987923;28;20049;-68
2023/07/19 11:14:01;;;;;;;5.85;1.63;;;;;;;24.29;48.04;101284.00;4986146;28;20027;-68
2023/07/19 11:16:27;;;;;;;6.47;1.33;;;;;;;24.31;47.69;101287.38;4988511;28;20105;-66
2023/07/19 11:18:53;;;;;;;4.40;1.60;;;;;;;24.31;48.01;101270.53;4987969;28;20117;-68